Pagrindinis puslapis
METAR-TAF:

METAR-TAF

Oro uostai :

Teheranas, Iranas

platuma: 35-41N, ilguma: 051-21E, Aukštis: 1204 m

Dabartinis oras

Ataskaita buvo paskelbta 24 minutes, ne 05:00 UTC
Vėjas 4 kt iš Rytų
Temperatūra 31°C
Drėgmė 16%
Slėgis 1019 hPa
Matomumas 10 km arba daugiau
Mažai debesys ne aukštis 10000 ft

METAR: OIII 180500Z 08004KT 9999 FEW100 31/02 Q1018 A3009 NOSIG

Laikas: 09:54 (05:24 UTC)

Prognozė

Ataskaita buvo paskelbta 6 valandos ir 14 minutes, ne 23:10 UTC
Prognozė galioja nuo 18 metu 00 UTC su 19 metu 06 UTC
Vėjas 6 kt iš Šiaurės/Šiaurės Rytų
Matomumas: 8000 m
Mažai debesys ne aukštis 4000 ft
Mažai debesys ne aukštis 10000 ft

TAF: OIII 172310Z 1800/1906 03006KT 8000 FEW040 FEW100

Orai ataskaitas ir orų prognozės (METAR, TAF).

turimą stotys yra geltonos ir raudonos taškus žemėlapyje.

Perkelti pele per norėdami pamatyti stoties vardą.

Tada spustelėkite, norėdami matyti oro stebėjimo ir prognozės.

Norėdami pakeisti žemėlapį: spustelėkite ant žalios mygtukų su juodo kryžiaus žemyn,; žalią mygtuką su brūkšneliu, jei norite nutolinti; arba žalių rodyklių gretimoms žemėlapius.


METAR-TAF: